createdAt,value
2023-05-03T06:18:44.269Z,14.83
2023-05-03T06:21:11.546Z,14.79
2023-05-03T06:23:40.249Z,14.86
2023-05-03T06:26:07.435Z,14.93
2023-05-03T06:28:34.923Z,15.01
2023-05-03T06:31:02.502Z,15.10
2023-05-03T06:33:29.419Z,15.09
2023-05-03T06:35:56.886Z,15.12
2023-05-03T06:38:23.832Z,15.22
2023-05-03T06:40:51.355Z,15.20
2023-05-03T06:43:18.344Z,15.21
2023-05-03T06:45:45.453Z,15.25
2023-05-03T06:48:12.441Z,15.30
2023-05-03T06:50:40.028Z,15.34
2023-05-03T06:53:06.917Z,15.37
2023-05-03T06:55:33.797Z,15.46
2023-05-03T06:58:00.749Z,15.46
2023-05-03T07:00:27.927Z,15.48
2023-05-03T07:02:54.901Z,15.52
2023-05-03T07:05:21.899Z,15.54
2023-05-03T07:07:48.757Z,15.59
2023-05-03T07:10:15.620Z,15.63
2023-05-03T07:12:42.577Z,15.66
2023-05-03T07:15:09.973Z,15.66
2023-05-03T07:17:36.873Z,15.74
2023-05-03T07:20:04.811Z,15.77
2023-05-03T07:22:31.911Z,15.79
2023-05-03T07:24:59.986Z,15.84
2023-05-03T07:27:27.288Z,15.90
2023-05-03T07:29:54.919Z,15.98
2023-05-03T07:32:22.602Z,16.01
2023-05-03T07:34:49.805Z,16.05
2023-05-03T07:37:17.589Z,16.14
2023-05-03T07:39:45.440Z,16.20
2023-05-03T07:42:12.320Z,16.26
2023-05-03T07:44:39.170Z,16.26
2023-05-03T07:47:06.120Z,16.27
2023-05-03T07:49:35.883Z,16.33
2023-05-03T07:52:03.251Z,16.36
2023-05-03T07:54:30.200Z,16.42
2023-05-03T07:56:57.057Z,16.46
2023-05-03T07:59:24.151Z,16.48
2023-05-03T08:01:51.344Z,16.52
2023-05-03T08:04:18.520Z,16.51
2023-05-03T08:06:45.826Z,16.53
2023-05-03T08:09:12.790Z,16.57
2023-05-03T08:11:41.617Z,16.52
2023-05-03T08:14:10.229Z,16.52
2023-05-03T08:16:37.039Z,16.48
2023-05-03T08:19:05.054Z,16.57
2023-05-03T08:21:33.705Z,16.55
2023-05-03T08:24:01.059Z,16.56
2023-05-03T08:26:29.992Z,16.58
2023-05-03T08:28:57.159Z,16.55
2023-05-03T08:31:23.997Z,16.52
2023-05-03T08:33:51.133Z,16.55
2023-05-03T08:36:18.057Z,16.58
2023-05-03T08:38:45.099Z,16.59
2023-05-03T08:41:32.486Z,16.66
2023-05-03T08:44:00.500Z,16.70
2023-05-03T08:46:28.951Z,16.76
2023-05-03T08:48:56.377Z,16.80
2023-05-03T08:51:24.588Z,16.85
2023-05-03T08:53:51.979Z,16.87
2023-05-03T08:56:40.133Z,16.92
2023-05-03T08:59:10.031Z,16.97
2023-05-03T09:01:37.706Z,17.01
2023-05-03T09:04:05.604Z,16.99
2023-05-03T09:06:35.403Z,17.03
2023-05-03T09:09:08.143Z,17.00
2023-05-03T09:11:36.401Z,17.06
2023-05-03T09:14:14.606Z,17.09
2023-05-03T09:16:44.695Z,17.15
2023-05-03T09:19:12.922Z,17.23
2023-05-03T09:21:41.414Z,17.27
2023-05-03T09:24:16.087Z,17.34
2023-05-03T09:26:43.927Z,17.41
2023-05-03T09:29:10.942Z,17.43
2023-05-03T09:31:38.331Z,17.48
2023-05-03T09:34:22.680Z,17.53
2023-05-03T09:36:49.669Z,17.60
2023-05-03T09:39:17.736Z,17.61
2023-05-03T09:41:44.809Z,17.68
2023-05-03T09:44:12.437Z,17.72
2023-05-03T09:46:39.568Z,17.77
2023-05-03T09:49:06.923Z,17.81
2023-05-03T09:51:34.093Z,17.86
2023-05-03T09:54:01.396Z,17.91
2023-05-03T09:56:29.246Z,17.97
2023-05-03T09:58:56.159Z,18.00
2023-05-03T10:01:24.776Z,18.08
2023-05-03T10:03:53.097Z,18.19
2023-05-03T10:06:25.197Z,18.29
2023-05-03T10:08:55.242Z,18.38
2023-05-03T10:11:24.544Z,18.47
2023-05-03T10:13:52.048Z,18.59
2023-05-03T10:16:24.206Z,18.68
2023-05-03T10:18:57.126Z,18.74
2023-05-03T10:21:40.943Z,18.80
2023-05-03T10:24:15.171Z,18.86
2023-05-03T10:26:49.017Z,18.88
2023-05-03T10:29:31.153Z,18.89
2023-05-03T10:31:58.183Z,18.77
2023-05-03T10:34:26.133Z,18.78
2023-05-03T10:36:57.018Z,18.85
2023-05-03T10:39:24.370Z,18.89
2023-05-03T10:42:03.711Z,18.95
2023-05-03T10:44:41.436Z,18.99
2023-05-03T10:47:21.233Z,18.99
2023-05-03T10:49:48.079Z,19.03
2023-05-03T10:52:36.604Z,19.10
2023-05-03T10:55:10.414Z,19.16
2023-05-03T10:57:40.358Z,19.13
2023-05-03T11:00:16.707Z,19.11
2023-05-03T11:03:12.413Z,19.08
2023-05-03T11:05:39.819Z,19.16
2023-05-03T11:08:10.231Z,19.13
2023-05-03T11:10:37.286Z,19.15
2023-05-03T11:13:04.155Z,19.16
2023-05-03T11:15:31.298Z,19.14
2023-05-03T11:17:58.308Z,19.13
2023-05-03T11:20:26.157Z,19.05
2023-05-03T11:22:53.186Z,19.02
2023-05-03T11:25:20.187Z,19.14
2023-05-03T11:27:47.886Z,19.12
2023-05-03T11:30:15.167Z,19.15
2023-05-03T11:32:43.453Z,19.20
2023-05-03T11:35:11.206Z,19.22
2023-05-03T11:37:38.148Z,19.27
2023-05-03T11:40:08.344Z,19.28
2023-05-03T11:42:35.394Z,19.32
2023-05-03T11:45:02.819Z,19.29
2023-05-03T11:47:30.654Z,19.28
2023-05-03T11:50:01.090Z,19.35
2023-05-03T11:52:28.125Z,19.35
2023-05-03T11:54:55.033Z,19.44
2023-05-03T11:57:22.067Z,19.59
2023-05-03T11:59:49.896Z,19.63
2023-05-03T12:02:17.021Z,19.66
2023-05-03T12:04:45.682Z,19.70
2023-05-03T12:07:17.164Z,19.75
2023-05-03T12:09:53.079Z,19.77
2023-05-03T12:12:35.642Z,19.96
2023-05-03T12:15:08.039Z,20.03
2023-05-03T12:17:38.176Z,20.16
2023-05-03T12:22:58.788Z,20.28
2023-05-03T12:25:34.053Z,20.31
2023-05-03T12:28:17.747Z,20.31
2023-05-03T12:30:47.763Z,20.37
2023-05-03T12:33:17.172Z,20.40
2023-05-03T12:35:47.679Z,20.47
2023-05-03T12:38:17.378Z,20.46
2023-05-03T12:40:45.937Z,20.49
2023-05-03T12:43:13.231Z,20.51
2023-05-03T12:45:41.328Z,20.54
2023-05-03T12:48:10.046Z,20.42
2023-05-03T12:50:38.726Z,20.44
2023-05-03T12:53:09.523Z,20.45
2023-05-03T12:55:43.939Z,20.53
2023-05-03T13:00:50.641Z,20.63
2023-05-03T13:03:33.776Z,20.59
2023-05-03T13:06:12.655Z,20.61
2023-05-03T13:08:49.585Z,20.56
2023-05-03T13:11:19.824Z,20.54
2023-05-03T13:14:05.005Z,20.55
2023-05-03T13:16:32.572Z,20.57
2023-05-03T13:18:59.490Z,20.51
2023-05-03T13:21:27.567Z,20.56
2023-05-03T13:23:54.434Z,20.59
2023-05-03T13:26:25.276Z,20.60
2023-05-03T13:28:52.192Z,20.59
2023-05-03T13:31:19.899Z,20.63
2023-05-03T13:33:46.802Z,20.63
2023-05-03T13:36:13.712Z,20.65
2023-05-03T13:38:42.080Z,20.58
2023-05-03T13:41:08.971Z,20.57
2023-05-03T13:43:35.914Z,20.65
2023-05-03T13:46:02.972Z,20.68
2023-05-03T13:48:31.796Z,20.68
2023-05-03T13:50:59.436Z,20.62
2023-05-03T13:53:27.082Z,20.57
2023-05-03T13:55:54.001Z,20.56
2023-05-03T13:58:20.836Z,20.58
2023-05-03T14:00:47.926Z,20.57
2023-05-03T14:03:15.535Z,20.60
2023-05-03T14:05:42.593Z,20.60
2023-05-03T14:08:09.464Z,20.63
2023-05-03T14:10:36.538Z,20.67
2023-05-03T14:13:04.055Z,20.73
2023-05-03T14:15:31.400Z,20.73
2023-05-03T14:18:01.294Z,20.77
2023-05-03T14:20:30.619Z,20.78
2023-05-03T14:22:57.527Z,20.77
2023-05-03T14:25:32.260Z,20.76
2023-05-03T14:27:59.123Z,20.76
2023-05-03T14:30:26.751Z,20.81
2023-05-03T14:32:57.064Z,21.00
2023-05-03T14:35:27.398Z,21.06
2023-05-03T14:37:54.331Z,21.06
2023-05-03T14:40:21.263Z,21.04
2023-05-03T14:42:49.634Z,21.05
2023-05-03T14:45:16.971Z,21.02
2023-05-03T14:47:44.056Z,21.03
2023-05-03T14:50:11.690Z,21.05
2023-05-03T14:52:42.700Z,21.00
2023-05-03T14:55:09.889Z,21.01
2023-05-03T14:57:40.267Z,20.93
2023-05-03T15:00:14.323Z,20.94
2023-05-03T15:02:42.599Z,20.85
2023-05-03T15:05:11.198Z,20.87
2023-05-03T15:07:38.448Z,20.85
2023-05-03T15:10:06.721Z,20.85
2023-05-03T15:12:34.288Z,20.84
2023-05-03T15:15:01.833Z,20.92
2023-05-03T15:17:29.997Z,20.92
2023-05-03T15:19:58.578Z,20.90
2023-05-03T15:22:25.463Z,20.91
2023-05-03T15:24:53.086Z,20.90
2023-05-03T15:27:20.224Z,20.90
2023-05-03T15:29:50.268Z,20.90
2023-05-03T15:32:18.818Z,20.84
2023-05-03T15:34:45.674Z,20.85
2023-05-03T15:37:13.427Z,20.87
2023-05-03T15:39:44.614Z,20.85
2023-05-03T15:42:14.823Z,20.89
2023-05-03T15:44:42.068Z,20.96
2023-05-03T15:47:11.174Z,20.89
2023-05-03T15:49:38.810Z,20.85
2023-05-03T15:52:07.779Z,20.80
2023-05-03T15:54:36.158Z,20.77
2023-05-03T15:57:05.468Z,20.74
2023-05-03T15:59:32.539Z,20.69
2023-05-03T16:02:00.124Z,20.69
2023-05-03T16:04:28.178Z,20.65
2023-05-03T16:06:55.139Z,20.63
2023-05-03T16:09:26.328Z,20.64
2023-05-03T16:11:53.401Z,20.67
2023-05-03T16:14:20.328Z,20.67
2023-05-03T16:16:48.431Z,20.64
2023-05-03T16:19:16.198Z,20.58
2023-05-03T16:21:43.610Z,20.57
2023-05-03T16:24:11.467Z,20.54
2023-05-03T16:27:05.214Z,20.53
2023-05-03T16:29:34.141Z,20.52
2023-05-03T16:32:02.186Z,20.49
2023-05-03T16:34:29.290Z,20.47
2023-05-03T16:36:56.387Z,20.42
2023-05-03T16:39:23.689Z,20.40
2023-05-03T16:41:50.703Z,20.39
2023-05-03T16:44:19.448Z,20.38
2023-05-03T16:46:47.005Z,20.38
2023-05-03T16:49:13.840Z,20.40
2023-05-03T16:51:41.347Z,20.41
2023-05-03T16:54:08.266Z,20.45
2023-05-03T16:56:35.500Z,20.54
2023-05-03T16:59:04.096Z,20.58
2023-05-03T17:01:31.454Z,20.61
2023-05-03T17:03:58.655Z,20.64
2023-05-03T17:06:25.742Z,20.67
2023-05-03T17:08:52.993Z,20.65
2023-05-03T17:11:20.150Z,20.65
2023-05-03T17:13:47.648Z,20.67
2023-05-03T17:16:15.908Z,20.65
2023-05-03T17:18:43.143Z,20.64
2023-05-03T17:21:11.320Z,20.60
2023-05-03T17:23:39.584Z,20.57
2023-05-03T17:26:08.800Z,20.55
2023-05-03T17:28:36.415Z,20.54
2023-05-03T17:31:03.906Z,20.52
2023-05-03T17:33:30.977Z,20.50
2023-05-03T17:35:57.988Z,20.51
2023-05-03T17:38:24.898Z,20.48
2023-05-03T17:40:51.899Z,20.48
2023-05-03T17:43:18.791Z,20.46
2023-05-03T17:45:47.982Z,20.45
2023-05-03T17:48:14.953Z,20.43
2023-05-03T17:50:43.334Z,20.41
2023-05-03T17:53:10.483Z,20.40
2023-05-03T17:55:40.857Z,20.40
2023-05-03T17:58:09.586Z,20.40
2023-05-03T18:00:36.426Z,20.41
2023-05-03T18:03:03.533Z,20.38
2023-05-03T18:05:36.956Z,20.38
2023-05-03T18:08:04.117Z,20.35
2023-05-03T18:10:31.221Z,20.35
2023-05-03T18:12:58.294Z,20.32
2023-05-03T18:15:25.160Z,20.31
2023-05-03T18:17:52.129Z,20.27
2023-05-03T18:20:19.705Z,20.25
2023-05-03T18:22:46.739Z,20.21
2023-05-03T18:25:13.775Z,20.18
2023-05-03T18:27:40.602Z,20.16
2023-05-03T18:30:08.102Z,20.13
2023-05-03T18:32:35.280Z,20.11
2023-05-03T18:35:02.753Z,20.07
2023-05-03T18:37:30.098Z,20.05
2023-05-03T18:39:57.069Z,20.01
2023-05-03T18:42:23.959Z,20.00
2023-05-03T18:44:50.814Z,19.98
2023-05-03T18:47:21.042Z,19.94
2023-05-03T18:49:52.829Z,19.91
2023-05-03T18:52:20.833Z,19.89
2023-05-03T18:54:48.000Z,19.86
2023-05-03T18:57:14.994Z,19.83
2023-05-03T18:59:52.624Z,19.81
2023-05-03T19:02:30.711Z,19.77
2023-05-03T19:04:58.378Z,19.75
2023-05-03T19:07:25.355Z,19.72
2023-05-03T19:09:58.520Z,19.72
2023-05-03T19:12:25.647Z,19.67
2023-05-03T19:14:52.618Z,19.65
2023-05-03T19:17:19.551Z,19.62
2023-05-03T19:19:46.769Z,19.60
2023-05-03T19:22:13.790Z,19.59
2023-05-03T19:24:44.032Z,19.57
2023-05-03T19:27:11.638Z,19.55
2023-05-03T19:29:38.543Z,19.53
2023-05-03T19:32:05.748Z,19.53
2023-05-03T19:34:35.550Z,19.49
2023-05-03T19:37:02.461Z,19.49
2023-05-03T19:39:32.891Z,19.46
2023-05-03T19:41:59.965Z,19.44
2023-05-03T19:44:29.894Z,19.43
2023-05-03T19:46:57.129Z,19.42
2023-05-03T19:49:24.886Z,19.40
2023-05-03T19:51:54.036Z,19.39
2023-05-03T19:54:21.300Z,19.37
2023-05-03T19:56:49.059Z,19.35
